首页
METAR-TAF:

METAR-TAF

机场 :

Saint-Yan, 法国

纬度: 46-24-45N, 经度: 004-00-48E, 海拔: 244米

当前天气观测

该预报发布于44分钟前的06:30 UTC
静风
温度 -1°C
湿度 100%
气压 1008 hPa
能見度: 0250
冻雾

METAR: LFLN 170630Z AUTO 00000KT 0300 0250 R33/0300U FZFG VV/// M01/M01 Q1008 BECMG 6000 NSW OVC006

时间: 08:14 (07:14 UTC)

预报

该预报发布于2小时和14分钟前的05:00 UTC
预报有效从17日的 06点(UTC)到 17日的 15点(UTC)
风速3节,风向多变
能見度: 2000
少量云层高于500英尺
散云层高于4000英尺
轻雾
短暂存在
从 17日的 06点(UTC)到 17日的 08点(UTC)
能見度: 0400
几率 40% :
短暂存在
从 17日的 06点(UTC)到 17日的 08点(UTC)
能見度: 0200
冻雾
成为
从 17日的 08点(UTC)到 17日的 10点(UTC)
能見度: 6000
阴天层高于600英尺
成为
从 17日的 10点(UTC)到 17日的 12点(UTC)
风速6节,风向
多云层高于1200英尺
成为
从 17日的 12点(UTC)到 17日的 14点(UTC)
少量云层高于1500英尺
多云层高于2500英尺

TAF: LFLN 170500Z 1706/1715 VRB03KT 2000 BR FEW005 SCT040 TEMPO 1706/1708 0400 FG VV/// PROB40 TEMPO 1706/1708 0200 FZFG BECMG 1708/1710 6000 NSW OVC006 BECMG 1710/1712 35006KT BKN012 BECMG 1712/1714 FEW015 BKN025

超过4000个机场的气象观测和天气预报(METAR&TAF报告)。

可查询的气象台以黄色和红色小点在地图上表示。

将鼠标移到小点上方,可查看气象台名称。

然后点击查看天气观测和预报。

如需切换地图:点击带黑十字的绿色按钮放大地图;点击带横线的绿色按钮缩小地图;或者点击绿色箭头查看邻近地区的地图。


METAR-TAF: